Flight Track Log - Related Links

Times and Time Zones

All times are in EDT time to prevent confusion due to time zone crossing. See the AAL2100 flight status page for this flight to view local times or setup timezone preferences in your user account.

Time Position Orientation Groundspeed Altitude Reporting Facility
EDT Latitude Longitude Course Direction KTS MPH feet Rate Location/Type
Fri 05:49:00 PM 19.5523 -98.7225 71° East  Level FlightAware Approximate
Fri 05:50:00 PM 19.5908 -98.6058 71° East  Level FlightAware Approximate
Fri 05:51:00 PM 19.6292 -98.4891 71° East  Level FlightAware Approximate
Fri 05:52:00 PM 19.6676 -98.3723 71° East  Level FlightAware Approximate
Fri 05:53:00 PM 19.7059 -98.2555 71° East  Level FlightAware Approximate
Fri 05:54:00 PM 19.7441 -98.1386 71° East  Level FlightAware Approximate
Fri 05:55:00 PM 19.7822 -98.0217 71° East  Level FlightAware Approximate
Fri 05:56:00 PM 19.8203 -97.9047 71° East  Level FlightAware Approximate
Fri 05:57:00 PM 19.8582 -97.7876 71° East  Level FlightAware Approximate
Fri 05:58:00 PM 19.8962 -97.6705 71° East  Level FlightAware Approximate
Fri 05:59:00 PM 19.9340 -97.5534 71° East  Level FlightAware Approximate
Fri 06:00:00 PM 19.9717 -97.4361 71° East  Level FlightAware Approximate
Fri 06:01:00 PM 20.0094 -97.3189 71° East  Level FlightAware Approximate
Fri 06:02:00 PM 20.0470 -97.2015 71° East  Level FlightAware Approximate
Fri 06:03:00 PM 20.0845 -97.0841 71° East  Level FlightAware Approximate
Fri 06:04:00 PM 20.1215 -96.9686 71° East  Level FlightAware Approximate
Fri 06:05:00 PM 20.1597 -96.8514 71° East  Level FlightAware Approximate
Fri 06:06:00 PM 20.1979 -96.7342 71° East  Level FlightAware Approximate
Fri 06:07:00 PM 20.2360 -96.6169 71° East  Level FlightAware Approximate
Fri 06:08:00 PM 20.2740 -96.4995 71° East  Level FlightAware Approximate
Fri 06:09:00 PM 20.3120 -96.3821 71° East  Level FlightAware Approximate
Fri 06:10:00 PM 20.3496 -96.2654 71° East  Level FlightAware Approximate
Fri 06:11:00 PM 20.3872 -96.1486 71° East  Level FlightAware Approximate
Fri 06:12:00 PM 20.4246 -96.0317 71° East  Level FlightAware Approximate
Fri 06:13:00 PM 20.4620 -95.9148 71° East  Level FlightAware Approximate
Fri 06:14:00 PM 20.4993 -95.7979 71° East  Level FlightAware Approximate
Fri 06:15:00 PM 20.5366 -95.6808 71° East  Level FlightAware Approximate
Fri 06:16:00 PM 20.5737 -95.5638 71° East  Level FlightAware Approximate
Fri 06:17:00 PM 20.6108 -95.4466 71° East  Level FlightAware Approximate
Fri 06:18:00 PM 20.6478 -95.3294 71° East  Level FlightAware Approximate
Fri 06:19:00 PM 20.6847 -95.2122 72° East  Level FlightAware Approximate
Fri 06:20:00 PM 20.7209 -95.0947 72° East  Level FlightAware Approximate
Fri 06:21:00 PM 20.7572 -94.9771 71° East  Level FlightAware Approximate
Fri 06:22:00 PM 20.7940 -94.8597 71° East  Level FlightAware Approximate
Fri 06:23:00 PM 20.8307 -94.7423 71° East  Level FlightAware Approximate
Fri 06:24:00 PM 20.8673 -94.6248 72° East  Level FlightAware Approximate
Fri 06:25:00 PM 20.9038 -94.5072 72° East  Level FlightAware Approximate
Fri 06:26:00 PM 20.9403 -94.3896 72° East  Level FlightAware Approximate
Fri 06:27:00 PM 20.9767 -94.2719 72° East  Level FlightAware Approximate
Fri 06:28:00 PM 21.0130 -94.1542 72° East  Level FlightAware Approximate
Fri 06:29:00 PM 21.0492 -94.0364 72° East  Level FlightAware Approximate
Fri 06:30:00 PM 21.0853 -93.9186 72° East  Level FlightAware Approximate
Fri 06:31:00 PM 21.1214 -93.8007 72° East  Level FlightAware Approximate
Fri 06:32:00 PM 21.1573 -93.6827 72° East  Level FlightAware Approximate
Fri 06:33:00 PM 21.1932 -93.5647 72° East  Level FlightAware Approximate
Fri 06:34:00 PM 21.2290 -93.4467 72° East  Level FlightAware Approximate
Fri 06:35:00 PM 21.2648 -93.3285 72° East  Level FlightAware Approximate
Fri 06:36:00 PM 21.3004 -93.2103 72° East  Level FlightAware Approximate
Fri 06:37:00 PM 21.3360 -93.0921 72° East  Level FlightAware Approximate
Fri 06:38:00 PM 21.3715 -92.9738 72° East  Level FlightAware Approximate
Fri 06:39:00 PM 21.4069 -92.8554 72° East  Level FlightAware Approximate
Fri 06:40:00 PM 21.4423 -92.7371 72° East  Level FlightAware Approximate
Fri 06:40:13 PM 20.7030 -92.5520 72° East 473 544 39,000  Level FlightAware ADS-B
Fri 06:41:00 PM 21.4780 -92.6188 72° East  Level FlightAware Approximate
Fri 06:41:11 PM 20.7390 -92.4400 71° East 472 543 39,000  Level FlightAware ADS-B
Fri 06:42:18 PM 20.7890 -92.2830 71° East 470 541 39,000  Level FlightAware ADS-B
Fri 06:42:58 PM 20.8150 -92.1990 72° East 468 539 39,000  Level FlightAware ADS-B
Fri 06:43:58 PM 20.8590 -92.0590 71° East 466 536 39,000  Level FlightAware ADS-B
Fri 06:44:44 PM 20.8900 -91.9600 71° East 463 533 39,000  Level FlightAware ADS-B
Fri 06:45:20 PM 20.9160 -91.8770 71° East 463 533 39,000  Level FlightAware ADS-B
Fri 06:46:07 PM 20.9570 -91.7460 71° East 465 535 39,000  Level FlightAware ADS-B
Fri 06:46:49 PM 20.9790 -91.6770 71° East 465 535 39,000  Level FlightAware ADS-B
Fri 06:47:19 PM 21.0010 -91.6060 72° East 465 535 39,000  Level FlightAware ADS-B
Fri 06:47:56 PM 21.0310 -91.5090 72° East 465 535 39,000  Level FlightAware ADS-B
Fri 06:48:41 PM 21.0620 -91.4080 72° East 466 536 39,000  Level FlightAware ADS-B
Fri 06:49:26 PM 21.0920 -91.3110 72° East 466 536 39,000  Level FlightAware ADS-B
Fri 06:50:03 PM 21.1170 -91.2310 71° East 466 536 39,000  Level FlightAware ADS-B
Fri 06:50:48 PM 21.1450 -91.1410 72° East 467 537 39,000  Level FlightAware ADS-B
Fri 06:51:30 PM 21.1760 -91.0400 72° East 469 540 39,000  Level FlightAware ADS-B
Fri 06:52:11 PM 21.2040 -90.9470 72° East 470 541 39,000  Level FlightAware ADS-B
Fri 06:52:55 PM 21.2340 -90.8490 72° East 472 543 39,000  Level FlightAware ADS-B
Fri 06:53:35 PM 21.2610 -90.7600 72° East 473 544 39,000  Level FlightAware ADS-B
Fri 06:54:20 PM 21.2910 -90.6630 72° East 474 545 39,000  Level FlightAware ADS-B
Fri 06:54:58 PM 21.3120 -90.5940 72° East 473 544 39,000  Level FlightAware ADS-B
Fri 06:55:38 PM 21.3370 -90.5120 72° East 471 542 39,000  Level FlightAware ADS-B
Fri 06:56:25 PM 21.3760 -90.3820 72° East 470 541 39,000  Level FlightAware ADS-B
Fri 06:57:09 PM 21.4050 -90.2840 72° East 470 541 39,000  Level FlightAware ADS-B
Fri 06:57:48 PM 21.4310 -90.1990 72° East 470 541 39,000  Level FlightAware ADS-B
Fri 06:58:29 PM 21.4590 -90.1070 72° East 470 541 39,000  Level FlightAware ADS-B
Fri 06:59:13 PM 21.4880 -90.0110 72° East 470 541 39,000  Level FlightAware ADS-B
Fri 06:59:53 PM 21.5150 -89.9200 72° East 470 541 39,000  Level FlightAware ADS-B
Fri 07:00:38 PM 21.5440 -89.8220 72° East 469 540 39,000  Level FlightAware ADS-B
Fri 07:01:19 PM 21.5710 -89.7300 72° East 468 539 39,000  Level FlightAware ADS-B
Fri 07:02:03 PM 21.6000 -89.6340 72° East 468 539 39,000  Level FlightAware ADS-B
Fri 07:02:44 PM 21.6260 -89.5450 73° East 467 537 39,000  Level FlightAware ADS-B
Fri 07:03:19 PM 21.6500 -89.4640 72° East 466 536 39,000  Level FlightAware ADS-B
Fri 07:03:58 PM 21.6680 -89.4030 72° East 466 536 39,000  Level FlightAware ADS-B
Fri 07:04:37 PM 21.6950 -89.3110 72° East 465 535 39,000  Level FlightAware ADS-B
Fri 07:05:20 PM 21.7240 -89.2130 72° East 465 535 39,000  Level FlightAware ADS-B
Fri 07:06:01 PM 21.7550 -89.1090 72° East 463 533 39,000  Level FlightAware ADS-B
Fri 07:06:41 PM 21.7810 -89.0210 72° East 461 531 39,000  Level FlightAware ADS-B
Fri 07:07:21 PM 21.8060 -88.9350 73° East 460 529 39,000  Level FlightAware ADS-B
Fri 07:08:01 PM 21.8310 -88.8470 73° East 459 528 39,000  Level FlightAware ADS-B
Fri 07:09:01 PM 21.8610 -88.7460 72° East 458 527 39,000  Level FlightAware ADS-B
Fri 07:09:39 PM 21.8940 -88.6320 73° East 459 528 39,000  Level FlightAware ADS-B
Fri 07:10:27 PM 21.9240 -88.5280 73° East 458 527 39,000  Level FlightAware ADS-B
Fri 07:11:07 PM 21.9490 -88.4410 73° East 458 527 39,000  Level FlightAware ADS-B
Fri 07:11:51 PM 21.9760 -88.3470 73° East 458 527 39,000  Level FlightAware ADS-B
Fri 07:12:32 PM 22.0010 -88.2590 73° East 458 527 39,000  Level FlightAware ADS-B
Fri 07:13:06 PM 22.0070 -88.2370 74° East 458 527 39,000  Level FlightAware ADS-B
Fri 07:13:53 PM 22.0380 -88.1310 72° East 458 527 39,000  Level FlightAware ADS-B
Fri 07:14:32 PM 22.0650 -88.0370 73° East 458 527 39,000  Level FlightAware ADS-B
Fri 07:15:08 PM 22.0980 -87.9190 73° East 458 527 39,000  Level FlightAware ADS-B
Fri 07:15:50 PM 22.1150 -87.8620 72° East 456 525 39,000  Level FlightAware ADS-B
Fri 07:16:36 PM 22.1430 -87.7620 73° East 456 525 39,000  Level FlightAware ADS-B
Fri 07:17:17 PM 22.1740 -87.6520 73° East 456 525 39,000  Level FlightAware ADS-B
Fri 07:17:56 PM 22.1980 -87.5670 73° East 456 525 39,000  Level FlightAware ADS-B
Fri 07:18:38 PM 22.2270 -87.4630 73° East 456 525 39,000  Level FlightAware ADS-B
Fri 07:19:20 PM 22.2430 -87.4070 73° East 455 524 39,000  Level FlightAware ADS-B
Fri 07:19:55 PM 22.2750 -87.2920 73° East 453 521 39,000  Level FlightAware ADS-B
Fri 07:20:41 PM 22.3030 -87.1930 73° East 454 522 39,000  Level FlightAware ADS-B
Fri 07:21:21 PM 22.3270 -87.1060 73° East 453 521 39,000  Level FlightAware ADS-B
Fri 07:21:59 PM 22.3500 -87.0230 73° East 453 521 39,000  Level FlightAware ADS-B
Fri 07:22:39 PM 22.3730 -86.9430 73° East 453 521 39,000  Level FlightAware ADS-B
Fri 07:23:19 PM 22.3950 -86.8630 73° East 453 521 39,000  Level FlightAware ADS-B
Fri 07:24:07 PM 22.4270 -86.7460 73° East 454 522 39,000  Level FlightAware ADS-B
Fri 07:24:49 PM 22.4500 -86.6640 73° East 453 521 39,000  Level FlightAware ADS-B
Fri 07:25:25 PM 22.4710 -86.5870 74° East 452 520 39,000  Level FlightAware ADS-B
Fri 07:26:09 PM 22.4990 -86.4840 74° East 451 519 39,000  Level FlightAware ADS-B
Fri 07:26:51 PM 22.5230 -86.3970 73° East 450 518 39,000  Level FlightAware ADS-B
Fri 07:27:32 PM 22.5450 -86.3180 73° East 450 518 39,000  Level FlightAware ADS-B
Fri 07:28:29 PM 22.5790 -86.1920 74° East 450 518 39,000  Level FlightAware ADS-B
Fri 07:29:21 PM 22.6090 -86.0810 74° East 450 518 39,000  Level FlightAware ADS-B
Fri 07:30:06 PM 22.6390 -85.9830 72° East 448 516 39,000  Level FlightAware ADS-B
Fri 07:30:46 PM 22.6670 -85.9120 67° East 448 516 39,000  Level FlightAware ADS-B
Fri 07:31:35 PM 22.7010 -85.8260 67° East 448 516 39,000  Level FlightAware ADS-B
Fri 07:32:27 PM 22.7730 -85.7040 57° Northeast 447 514 39,000  Level FlightAware ADS-B
Fri 07:33:05 PM 22.8040 -85.6400 62° Northeast 447 514 39,000  Level FlightAware ADS-B
Fri 07:33:40 PM 22.8370 -85.5690 63° Northeast 447 514 39,000  Level FlightAware ADS-B
Fri 07:34:20 PM 22.8700 -85.5020 62° Northeast 447 514 39,000  Level FlightAware ADS-B
Fri 07:35:08 PM 22.9090 -85.4210 62° Northeast 447 514 39,000  Level FlightAware ADS-B
Fri 07:35:44 PM 22.9390 -85.3600 62° Northeast 447 514 39,000 -7 Level FlightAware ADS-B
Fri 07:38:00 PM 23.0826 -85.1172 57° Northeast  Level Estimated
Fri 07:39:00 PM 23.1458 -85.0099 57° Northeast  Level Estimated
Fri 07:40:00 PM 23.2090 -84.9025 57° Northeast  Level Estimated
Fri 07:41:00 PM 23.2720 -84.7950 57° Northeast  Level Estimated
Fri 07:42:00 PM 23.3351 -84.6874 57° Northeast  Level Estimated
Fri 07:43:00 PM 23.3980 -84.5797 58° Northeast  Level Estimated
Fri 07:44:00 PM 23.4608 -84.4719 58° Northeast  Level Estimated
Fri 07:45:00 PM 23.5236 -84.3640 58° Northeast  Level Estimated
Fri 07:46:00 PM 23.5863 -84.2560 58° Northeast  Level Estimated
Fri 07:47:00 PM 23.6490 -84.1479 58° Northeast  Level Estimated
Fri 07:48:00 PM 23.7115 -84.0396 58° Northeast  Level Estimated
Fri 07:48:53 PM 23.6817 -83.7436 58° Northeast 457 526 38,900  Level Miami Center
Fri 07:49:00 PM 23.7740 -83.9313 58° Northeast  Level Estimated
Fri 07:49:53 PM 23.7328 -83.6286 64° Northeast 443 510 39,000  Level Miami Center
Fri 07:50:00 PM 23.8364 -83.8229 58° Northeast  Level Estimated
Fri 07:50:53 PM 23.7900 -83.5158 61° Northeast 430 495 39,000  Level Miami Center
Fri 07:51:00 PM 23.8988 -83.7144 58° Northeast  Level Estimated
Fri 07:51:53 PM 23.8411 -83.3983 65° Northeast 424 488 38,900  Level Miami Center
Fri 07:52:00 PM 23.9610 -83.6058 58° Northeast  Level Estimated
Fri 07:52:53 PM 23.8942 -83.2808 64° Northeast 424 488 39,000  Level Miami Center
Fri 07:53:00 PM 24.0232 -83.4970 58° Northeast  Level Estimated
Fri 07:53:53 PM 23.9453 -83.1631 65° Northeast 419 482 39,000  Level Miami Center
Fri 07:54:53 PM 24.0019 -83.0525 61° Northeast 419 482 38,900 -234 Descending Miami Center
Fri 08:00:44 PM 24.4380 -82.4420 61° Northeast 438 504 37,400 -230 Descending FlightAware ADS-B
Fri 08:01:24 PM 24.4810 -82.3830 51° Northeast 438 504 37,400  Level FlightAware ADS-B
Fri 08:02:02 PM 24.5220 -82.3270 51° Northeast 438 504 37,400  Level FlightAware ADS-B
Fri 08:02:38 PM 24.5610 -82.2740 51° Northeast 438 504 37,400 -1,878 Level FlightAware ADS-B
Fri 08:03:57 PM 24.6790 -82.1150 51° Northeast 449 517 33,800 -2,926 Descending FlightAware ADS-B
Fri 08:04:39 PM 24.7460 -82.0230 51° Northeast 451 519 31,500 -2,536 Descending FlightAware ADS-B
Fri 08:05:34 PM 24.8170 -81.9260 51° Northeast 427 491 29,700 -2,250 Descending FlightAware ADS-B
Fri 08:06:15 PM 24.8660 -81.8590 51° Northeast 419 482 27,900 -2,415 Descending FlightAware ADS-B
Fri 08:06:56 PM 24.9090 -81.8000 51° Northeast 417 480 26,400 -2,337 Descending FlightAware ADS-B
Fri 08:07:50 PM 24.9810 -81.7020 51° Northeast 398 458 24,200 -2,265 Descending FlightAware ADS-B
Fri 08:08:34 PM 25.0320 -81.6310 52° Northeast 390 449 22,700 -1,955 Descending FlightAware ADS-B
Fri 08:09:19 PM 25.0840 -81.5610 51° Northeast 374 430 21,300 -1,733 Descending FlightAware ADS-B
Fri 08:10:04 PM 25.1310 -81.4950 52° Northeast 369 425 20,100 -1,500 Descending FlightAware ADS-B
Fri 08:10:59 PM 25.1850 -81.4210 51° Northeast 368 423 18,800 -1,250 Descending FlightAware ADS-B
Fri 08:11:40 PM 25.2170 -81.3770 51° Northeast 365 420 18,100 -1,650 Descending FlightAware ADS-B
Fri 08:12:19 PM 25.2750 -81.2960 52° Northeast 359 413 16,600 -1,880 Descending FlightAware ADS-B
Fri 08:13:03 PM 25.3190 -81.2360 51° Northeast 348 400 15,500 -1,347 Descending FlightAware ADS-B
Fri 08:13:57 PM 25.3600 -81.1790 51° Northeast 340 391 14,400 -1,453 Descending FlightAware ADS-B
Fri 08:14:38 PM 25.4040 -81.1170 52° Northeast 335 386 13,200 -1,024 Descending FlightAware ADS-B
Fri 08:15:19 PM 25.4440 -81.0610 52° Northeast 326 375 13,000 -1,079 Descending FlightAware ADS-B
Fri 08:16:07 PM 25.4900 -80.9980 51° Northeast 316 364 11,600 -875 Descending FlightAware ADS-B
Fri 08:16:55 PM 25.5260 -80.9450 53° Northeast 316 364 11,600  Level FlightAware ADS-B
Fri 08:17:31 PM 25.5540 -80.9060 51° Northeast 316 364 11,600 -1,000 Level FlightAware ADS-B
Fri 08:20:19 PM 25.7380 -80.7530 37° Northeast 252 290 8,200 -1,105 Descending FlightAware ADS-B
Fri 08:20:41 PM 25.7580 -80.7440 22° Northeast 227 261 8,100 -122 Descending FlightAware ADS-B
Fri 08:21:08 PM 25.7790 -80.7310 29° Northeast 227 261 8,100 -1,174 Level FlightAware ADS-B
Fri 08:21:27 PM 25.7710 -80.7010 106° East 187 215 7,200 -1,957 Descending FlightAware ADS-B
Fri 08:21:54 PM 25.7710 -80.6760 90° East 185 213 6,600 -1,364 Descending FlightAware ADS-B
Fri 08:22:11 PM 25.7720 -80.6610 86° East 187 215 6,200 -1,350 Descending FlightAware ADS-B
Fri 08:22:34 PM 25.7730 -80.6390 87° East 184 212 5,700 -1,200 Descending FlightAware ADS-B
Fri 08:23:06 PM 25.7740 -80.6080 88° East 181 208 5,100 -1,220 Descending FlightAware ADS-B
Fri 08:23:33 PM 25.7750 -80.5830 87° East 180 207 4,500 -1,395 Descending FlightAware ADS-B
Fri 08:23:49 PM 25.7760 -80.5680 86° East 179 206 4,100 -1,091 Descending FlightAware ADS-B
Fri 08:24:17 PM 25.7760 -80.5430 90° East 172 198 3,700 -828 Descending FlightAware ADS-B
Fri 08:24:47 PM 25.7770 -80.5160 88° East 174 200 3,300 -750 Descending FlightAware ADS-B
Fri 08:25:13 PM 25.7780 -80.4930 87° East 173 199 3,000 -577 Descending FlightAware ADS-B
Fri 08:25:39 PM 25.7790 -80.4710 87° East 164 189 2,800 -828 Descending FlightAware ADS-B
Fri 08:26:11 PM 25.7810 -80.4450 85° East 152 175 2,200 -1,100 Descending FlightAware ADS-B
Fri 08:26:39 PM 25.7810 -80.4240 90° East 142 163 1,700 -808 Descending FlightAware ADS-B
Fri 08:27:03 PM 25.7820 -80.4070 86° East 143 165 1,500 -692 Descending FlightAware ADS-B
Fri 08:27:31 PM 25.7830 -80.3860 87° East 144 166 1,100 -429 Descending FlightAware ADS-B
Fri 08:28:13 PM 25.7840 -80.3580 88° East 143 165 1,000 -143 Descending FlightAware ADS-B
Fri 08:29:58 PM 25.7870 -80.2920 87° East 59 68 -571 Descending FlightAware ADS-B
Fri 08:30:11 PM 25.7880 -80.2870 77° East 28 32  Level FlightAware ADS-B
Fri 08:30:42 PM 25.7910 -80.2870 360° North 19 22  Level FlightAware ADS-B
Fri 08:31:09 PM 25.7930 -80.2870 360° North 23 26  Level FlightAware ADS-B

Login

Don't have an account? Register now (free) for customized features, flight alerts, and more!